createdAt,value
2023-01-20T00:01:43.652Z,96878.06
2023-01-20T00:04:12.450Z,96885.78
2023-01-20T00:06:42.315Z,96883.06
2023-01-20T00:09:17.341Z,96885.56
2023-01-20T00:11:46.235Z,96881.03
2023-01-20T00:14:14.668Z,96879.00
2023-01-20T00:16:42.983Z,96873.66
2023-01-20T00:19:13.759Z,96882.19
2023-01-20T00:21:43.834Z,96883.88
2023-01-20T00:24:12.117Z,96888.16
2023-01-20T00:26:40.411Z,96890.78
2023-01-20T00:29:09.981Z,96885.53
2023-01-20T00:31:39.089Z,96894.25
2023-01-20T00:34:07.370Z,96901.97
2023-01-20T00:36:35.614Z,96905.53
2023-01-20T00:39:06.237Z,96908.28
2023-01-20T00:41:34.655Z,96908.53
2023-01-20T00:44:02.870Z,96906.03
2023-01-20T00:46:31.124Z,96907.22
2023-01-20T00:48:59.369Z,96909.84
2023-01-20T00:51:27.695Z,96902.84
2023-01-20T00:53:55.930Z,96908.88
2023-01-20T00:56:25.503Z,96914.97
2023-01-20T00:58:55.179Z,96912.22
2023-01-20T01:01:23.755Z,96916.63
2023-01-20T01:03:54.630Z,96913.31
2023-01-20T01:06:23.765Z,96916.75
2023-01-20T01:08:53.058Z,96918.56
2023-01-20T01:11:21.305Z,96917.72
2023-01-20T01:13:50.958Z,96922.00
2023-01-20T01:16:19.349Z,96927.84
2023-01-20T01:18:47.719Z,96924.25
2023-01-20T01:21:17.788Z,96924.97
2023-01-20T01:23:46.099Z,96916.97
2023-01-20T01:26:14.990Z,96923.06
2023-01-20T01:28:43.218Z,96923.06
2023-01-20T01:31:12.817Z,96920.44
2023-01-20T01:33:41.137Z,96911.75
2023-01-20T01:36:14.288Z,96918.75
2023-01-20T01:38:42.691Z,96913.66
2023-01-20T01:41:13.515Z,96914.38
2023-01-20T01:44:01.750Z,96911.88
2023-01-20T01:46:31.386Z,96914.59
2023-01-20T01:49:02.434Z,96918.19
2023-01-20T01:51:35.415Z,96916.50
2023-01-20T01:54:10.767Z,96917.47
2023-01-20T01:56:42.478Z,96927.00
2023-01-20T01:59:12.697Z,96923.69
2023-01-20T02:01:46.333Z,96921.06
2023-01-20T02:04:16.678Z,96923.69
2023-01-20T02:06:48.346Z,96915.94
2023-01-20T02:09:16.675Z,96923.78
2023-01-20T02:11:48.743Z,96923.91
2023-01-20T02:14:17.887Z,96932.03
2023-01-20T02:17:00.447Z,96930.44
2023-01-20T02:20:16.474Z,96930.81
2023-01-20T02:22:48.602Z,96931.19
2023-01-20T02:25:43.008Z,96928.91
2023-01-20T02:28:44.330Z,96933.69
2023-01-20T02:31:53.129Z,96934.06
2023-01-20T02:34:31.532Z,96939.53
2023-01-20T02:37:03.235Z,96954.41
2023-01-20T02:39:43.150Z,96946.66
2023-01-20T02:42:15.644Z,96950.97
2023-01-20T02:44:50.319Z,96956.22
2023-01-20T02:47:25.090Z,96961.22
2023-01-20T02:49:59.203Z,96955.13
2023-01-20T02:52:30.594Z,96953.09
2023-01-20T02:55:03.783Z,96968.00
2023-01-20T02:57:37.913Z,96965.25
2023-01-20T03:00:13.329Z,96966.91
2023-01-20T03:02:43.641Z,96970.25
2023-01-20T03:05:19.514Z,96984.03
2023-01-20T03:07:50.782Z,96982.28
2023-01-20T03:10:23.635Z,96976.06
2023-01-20T03:12:56.375Z,96978.69
2023-01-20T03:15:35.220Z,96989.16
2023-01-20T03:18:03.595Z,96989.16
2023-01-20T03:20:33.706Z,96991.66
2023-01-20T03:23:02.016Z,97008.94
2023-01-20T03:25:30.365Z,97005.47
2023-01-20T03:27:58.665Z,97008.09
2023-01-20T03:30:27.031Z,97007.16
2023-01-20T03:32:55.327Z,97013.34
2023-01-20T03:35:24.012Z,97006.56
2023-01-20T03:37:53.639Z,97000.72
2023-01-20T03:40:24.797Z,97007.84
2023-01-20T03:43:01.144Z,97007.97
2023-01-20T03:45:42.183Z,97015.94
2023-01-20T03:48:19.919Z,97010.81
2023-01-20T03:50:56.513Z,97015.25
2023-01-20T03:53:34.202Z,97020.50
2023-01-20T03:56:09.266Z,97017.03
2023-01-20T03:58:42.676Z,97023.09
2023-01-20T04:01:18.597Z,97016.78
2023-01-20T04:03:49.920Z,97012.50
2023-01-20T04:06:20.906Z,97024.66
2023-01-20T04:08:56.747Z,97021.06
2023-01-20T04:11:26.150Z,97012.41
2023-01-20T04:13:54.620Z,97019.16
2023-01-20T04:16:24.578Z,97024.28
2023-01-20T04:18:54.015Z,97026.91
2023-01-20T04:21:31.537Z,97025.13
2023-01-20T04:24:07.039Z,97029.53
2023-01-20T04:26:35.264Z,97026.06
2023-01-20T04:29:10.530Z,97031.31
2023-01-20T04:31:41.526Z,97035.72
2023-01-20T04:34:15.438Z,97038.34
2023-01-20T04:36:44.363Z,97039.28
2023-01-20T04:39:13.910Z,97044.53
2023-01-20T04:41:42.131Z,97045.38
2023-01-20T04:44:10.355Z,97052.25
2023-01-20T04:46:38.685Z,97056.56
2023-01-20T04:49:07.001Z,97054.66
2023-01-20T04:51:35.640Z,97057.25
2023-01-20T04:54:04.047Z,97062.50
2023-01-20T04:56:33.882Z,97060.72
2023-01-20T04:59:02.156Z,97066.81
2023-01-20T05:01:30.451Z,97070.25
2023-01-20T05:03:58.739Z,97069.31
2023-01-20T05:06:27.087Z,97072.75
2023-01-20T05:08:55.330Z,97075.38
2023-01-20T05:11:23.619Z,97071.94
2023-01-20T05:13:53.246Z,97089.31
2023-01-20T05:16:25.014Z,97086.81
2023-01-20T05:18:53.279Z,97084.19
2023-01-20T05:21:21.485Z,97088.59
2023-01-20T05:23:49.799Z,97092.03
2023-01-20T05:26:18.105Z,97102.41
2023-01-20T05:28:46.716Z,97098.25
2023-01-20T05:31:16.471Z,97096.44
2023-01-20T05:33:44.927Z,97097.41
2023-01-20T05:36:13.670Z,97100.03
2023-01-20T05:38:41.957Z,97105.25
2023-01-20T05:41:11.578Z,97099.19
2023-01-20T05:43:39.835Z,97096.56
2023-01-20T05:46:08.525Z,97109.44
2023-01-20T05:48:38.156Z,97117.28
2023-01-20T05:51:06.958Z,97111.13
2023-01-20T05:53:35.213Z,97112.28
2023-01-20T05:56:05.433Z,97116.34
2023-01-20T05:58:34.523Z,97125.97
2023-01-20T06:01:07.270Z,97120.13
2023-01-20T06:03:37.188Z,97120.13
2023-01-20T06:06:08.664Z,97125.47
2023-01-20T06:08:37.033Z,97130.84
2023-01-20T06:11:05.351Z,97133.56
2023-01-20T06:13:35.362Z,97135.38
2023-01-20T06:16:05.748Z,97128.56
2023-01-20T06:18:37.202Z,97129.53
2023-01-20T06:21:05.762Z,97132.25
2023-01-20T06:23:34.303Z,97136.69
2023-01-20T06:26:04.705Z,97148.81
2023-01-20T06:28:33.398Z,97147.16
2023-01-20T06:31:03.444Z,97149.91
2023-01-20T06:33:32.254Z,97155.25
2023-01-20T06:36:02.574Z,97147.72
2023-01-20T06:38:33.914Z,97156.50
2023-01-20T06:41:04.544Z,97159.25
2023-01-20T06:43:35.071Z,97161.16
2023-01-20T06:46:05.285Z,97167.44
2023-01-20T06:48:34.487Z,97174.59
2023-01-20T06:51:06.251Z,97170.41
2023-01-20T06:53:34.961Z,97168.19
2023-01-20T06:56:03.612Z,97182.03
2023-01-20T06:58:33.960Z,97183.91
2023-01-20T07:01:08.801Z,97185.06
2023-01-20T07:03:37.327Z,97183.53
2023-01-20T07:06:16.433Z,97189.69
2023-01-20T07:08:45.475Z,97195.03
2023-01-20T07:11:14.070Z,97193.47
2023-01-20T07:13:42.339Z,97203.09
2023-01-20T07:16:14.396Z,97197.38
2023-01-20T07:18:44.266Z,97199.06
2023-01-20T07:21:14.342Z,97203.44
2023-01-20T07:23:42.777Z,97214.75
2023-01-20T07:26:13.440Z,97217.47
2023-01-20T07:28:41.880Z,97222.81
2023-01-20T07:31:13.357Z,97234.25
2023-01-20T07:33:41.820Z,97230.09
2023-01-20T07:36:13.920Z,97237.94
2023-01-20T07:38:42.724Z,97235.31
2023-01-20T07:41:16.417Z,97245.88
2023-01-20T07:43:45.278Z,97250.28
2023-01-20T07:46:14.680Z,97256.47
2023-01-20T07:48:43.470Z,97257.19
2023-01-20T07:51:16.550Z,97256.47
2023-01-20T07:53:46.889Z,97262.41
2023-01-20T07:56:18.478Z,97265.03
2023-01-20T07:58:47.634Z,97278.84
2023-01-20T08:01:19.047Z,97269.09
2023-01-20T08:03:47.986Z,97272.44
2023-01-20T08:06:20.617Z,97274.84
2023-01-20T08:08:49.040Z,97272.97
2023-01-20T08:11:19.546Z,97274.63
2023-01-20T08:13:47.973Z,97275.25
2023-01-20T08:16:18.696Z,97288.13
2023-01-20T08:18:47.666Z,97288.72
2023-01-20T08:21:23.307Z,97286.00
2023-01-20T08:23:52.230Z,97295.47
2023-01-20T08:26:20.987Z,97287.41
2023-01-20T08:28:49.434Z,97289.81
2023-01-20T08:31:21.442Z,97296.59
2023-01-20T08:33:53.792Z,97296.47
2023-01-20T08:36:26.396Z,97303.28
2023-01-20T08:38:56.916Z,97308.28
2023-01-20T08:41:29.035Z,97307.16
2023-01-20T08:43:59.458Z,97310.56
2023-01-20T08:46:28.173Z,97319.88
2023-01-20T08:48:56.518Z,97317.16
2023-01-20T08:51:28.968Z,97313.50
2023-01-20T08:53:57.607Z,97315.03
2023-01-20T08:56:26.139Z,97314.81
2023-01-20T08:58:54.983Z,97328.53
2023-01-20T09:01:25.899Z,97326.63
2023-01-20T09:04:05.291Z,97330.22
2023-01-20T09:06:41.522Z,97326.53
2023-01-20T09:09:09.837Z,97317.00
2023-01-20T09:11:38.528Z,97330.72
2023-01-20T09:14:06.886Z,97341.81
2023-01-20T09:16:35.448Z,97335.75
2023-01-20T09:19:04.214Z,97343.59
2023-01-20T09:21:32.950Z,97343.50
2023-01-20T09:24:02.593Z,97342.66
2023-01-20T09:26:38.339Z,97349.44
2023-01-20T09:29:11.900Z,97358.88
2023-01-20T09:31:44.325Z,97359.69
2023-01-20T09:34:15.417Z,97360.53
2023-01-20T09:36:43.738Z,97361.28
2023-01-20T09:39:33.315Z,97362.94
2023-01-20T09:42:41.569Z,97362.09
2023-01-20T09:45:26.125Z,97359.59
2023-01-20T09:48:04.200Z,97364.72
2023-01-20T09:51:02.808Z,97370.81
2023-01-20T09:53:46.078Z,97363.78
2023-01-20T09:56:18.896Z,97369.75
2023-01-20T09:58:56.680Z,97364.38
2023-01-20T10:01:31.570Z,97369.41
2023-01-20T10:04:07.443Z,97359.03
2023-01-20T10:06:42.897Z,97356.06
2023-01-20T10:09:21.350Z,97359.56
2023-01-20T10:11:57.064Z,97364.47
2023-01-20T10:14:34.563Z,97363.38
2023-01-20T10:17:09.515Z,97362.31
2023-01-20T10:19:44.784Z,97362.09
2023-01-20T10:22:19.135Z,97356.63
2023-01-20T10:24:56.401Z,97350.56
2023-01-20T10:27:29.876Z,97358.91
2023-01-20T10:30:05.854Z,97352.63
2023-01-20T10:32:37.824Z,97357.53
2023-01-20T10:35:15.701Z,97360.75
2023-01-20T10:37:44.498Z,97354.22
2023-01-20T10:40:34.871Z,97359.25
2023-01-20T10:43:13.245Z,97364.03
2023-01-20T10:45:59.752Z,97359.25
2023-01-20T10:48:51.355Z,97359.13
2023-01-20T10:51:31.906Z,97358.56
2023-01-20T10:54:11.848Z,97353.72
2023-01-20T10:56:45.220Z,97355.97
2023-01-20T10:59:24.879Z,97356.69
2023-01-20T11:02:06.249Z,97358.03
2023-01-20T11:04:39.359Z,97360.31
2023-01-20T11:07:14.614Z,97361.84
2023-01-20T11:09:42.910Z,97355.75
2023-01-20T11:12:17.002Z,97355.28
2023-01-20T11:14:47.411Z,97363.78
2023-01-20T11:17:20.339Z,97354.13
2023-01-20T11:19:54.573Z,97362.47
2023-01-20T11:22:31.750Z,97361.59
2023-01-20T11:25:01.207Z,97361.25
2023-01-20T11:27:36.545Z,97364.50
2023-01-20T11:30:17.667Z,97362.84
2023-01-20T11:32:46.186Z,97356.38
2023-01-20T11:35:25.057Z,97362.25
2023-01-20T11:37:53.898Z,97357.22
2023-01-20T11:43:04.115Z,97357.56
2023-01-20T11:45:35.865Z,97357.34
2023-01-20T11:48:10.930Z,97358.06
2023-01-20T11:50:41.168Z,97361.41
2023-01-20T11:53:32.104Z,97368.31
2023-01-20T11:56:04.490Z,97371.69
2023-01-20T11:58:35.485Z,97362.84
2023-01-20T12:01:08.245Z,97365.34
2023-01-20T12:04:24.875Z,97370.72
2023-01-20T12:06:59.482Z,97362.09
2023-01-20T12:09:33.027Z,97365.59
2023-01-20T12:12:06.572Z,97362.00
2023-01-20T12:14:41.273Z,97366.31
2023-01-20T12:17:21.845Z,97368.09
2023-01-20T12:20:01.063Z,97374.31
2023-01-20T12:22:36.767Z,97368.09
2023-01-20T12:25:16.221Z,97365.34
2023-01-20T12:27:51.833Z,97373.09
2023-01-20T12:30:44.798Z,97376.69
2023-01-20T12:33:26.570Z,97373.34
2023-01-20T12:36:41.422Z,97376.94
2023-01-20T12:39:40.396Z,97381.47
2023-01-20T12:43:04.738Z,97373.56
2023-01-20T12:45:54.682Z,97383.47
2023-01-20T12:48:36.898Z,97378.34
2023-01-20T12:51:28.138Z,97382.91
2023-01-20T12:54:19.453Z,97385.53
2023-01-20T12:56:56.172Z,97385.53
2023-01-20T12:59:39.702Z,97379.53
2023-01-20T13:02:48.721Z,97384.06
2023-01-20T13:06:02.363Z,97387.88
2023-01-20T13:08:42.893Z,97382.75
2023-01-20T13:11:22.238Z,97384.88
2023-01-20T13:14:07.840Z,97390.88
2023-01-20T13:16:42.846Z,97385.63
2023-01-20T13:19:16.667Z,97396.97
2023-01-20T13:21:54.035Z,97392.75
2023-01-20T13:24:31.428Z,97392.66
2023-01-20T13:27:00.894Z,97391.69
2023-01-20T13:29:44.867Z,97396.69
2023-01-20T13:32:36.663Z,97400.28
2023-01-20T13:35:46.004Z,97407.44
2023-01-20T13:38:30.869Z,97402.31
2023-01-20T13:41:03.394Z,97407.56
2023-01-20T13:43:51.144Z,97409.13
2023-01-20T13:46:41.635Z,97422.09
2023-01-20T13:49:22.850Z,97419.38
2023-01-20T13:51:51.770Z,97428.09
2023-01-20T13:54:48.044Z,97435.00
2023-01-20T13:57:37.576Z,97433.22
2023-01-20T14:00:20.982Z,97429.75
2023-01-20T14:02:51.186Z,97431.44
2023-01-20T14:05:32.586Z,97434.06
2023-01-20T14:08:01.463Z,97441.84
2023-01-20T14:10:31.285Z,97439.09
2023-01-20T14:12:59.515Z,97443.38
2023-01-20T14:15:40.045Z,97443.38
2023-01-20T14:18:17.045Z,97448.63
2023-01-20T14:21:03.617Z,97452.91
2023-01-20T14:23:38.391Z,97446.72
2023-01-20T14:26:12.386Z,97459.75
2023-01-20T14:28:50.173Z,97455.31
2023-01-20T14:31:36.549Z,97457.94
2023-01-20T14:34:27.142Z,97460.69
2023-01-20T14:36:57.941Z,97465.00
2023-01-20T14:39:28.880Z,97462.38
2023-01-20T14:42:00.076Z,97467.63
2023-01-20T14:44:30.775Z,97469.28
2023-01-20T14:47:02.594Z,97468.44
2023-01-20T14:49:35.403Z,97474.53
2023-01-20T14:52:05.725Z,97473.69
2023-01-20T14:54:40.813Z,97478.94
2023-01-20T14:57:30.053Z,97480.75
2023-01-20T15:00:16.709Z,97477.41
2023-01-20T15:03:04.944Z,97486.25
2023-01-20T15:05:40.315Z,97487.16
2023-01-20T15:08:26.238Z,97486.47
2023-01-20T15:11:24.810Z,97495.28
2023-01-20T15:14:12.822Z,97494.56
2023-01-20T15:16:52.023Z,97499.94
2023-01-20T15:19:37.853Z,97496.69
2023-01-20T15:22:24.545Z,97496.69
2023-01-20T15:24:53.203Z,97501.13
2023-01-20T15:27:27.250Z,97510.78
2023-01-20T15:30:20.009Z,97511.84
2023-01-20T15:32:49.657Z,97518.88
2023-01-20T15:35:22.939Z,97512.91
2023-01-20T15:37:52.228Z,97514.69
2023-01-20T15:40:23.179Z,97527.94
2023-01-20T15:42:53.493Z,97524.47
2023-01-20T15:45:23.226Z,97519.22
2023-01-20T15:47:51.540Z,97525.53
2023-01-20T15:50:22.690Z,97522.91
2023-01-20T15:52:51.091Z,97533.41
2023-01-20T15:55:20.875Z,97529.09
2023-01-20T15:57:52.984Z,97529.31
2023-01-20T16:00:25.041Z,97534.56
2023-01-20T16:02:53.509Z,97539.13
2023-01-20T16:05:22.195Z,97540.78
2023-01-20T16:07:50.624Z,97549.50
2023-01-20T16:10:20.535Z,97551.28
2023-01-20T16:12:49.366Z,97546.88
2023-01-20T16:15:19.433Z,97552.13
2023-01-20T16:17:51.240Z,97554.75
2023-01-20T16:20:23.532Z,97549.59
2023-01-20T16:22:52.573Z,97553.91
2023-01-20T16:25:21.574Z,97559.16
2023-01-20T16:27:49.982Z,97558.31
2023-01-20T16:30:20.828Z,97553.06
2023-01-20T16:32:50.653Z,97566.91
2023-01-20T16:35:23.532Z,97563.31
2023-01-20T16:37:52.406Z,97564.28
2023-01-20T16:40:22.217Z,97567.88
2023-01-20T16:42:50.661Z,97568.69
2023-01-20T16:45:28.775Z,97573.94
2023-01-20T16:47:58.698Z,97581.81
2023-01-20T16:50:28.408Z,97578.38
2023-01-20T16:52:57.287Z,97581.81
2023-01-20T16:55:25.808Z,97586.25
2023-01-20T16:57:54.387Z,97578.38
2023-01-20T17:00:23.707Z,97584.44
2023-01-20T17:02:53.068Z,97590.41
2023-01-20T17:05:25.665Z,97594.00
2023-01-20T17:07:56.908Z,97590.41
2023-01-20T17:10:26.348Z,97600.81
2023-01-20T17:12:55.455Z,97599.16
2023-01-20T17:15:24.389Z,97607.03
2023-01-20T17:17:55.849Z,97604.50
2023-01-20T17:20:27.274Z,97606.28
2023-01-20T17:22:56.441Z,97607.25
2023-01-20T17:25:24.935Z,97614.25
2023-01-20T17:27:53.377Z,97616.88
2023-01-20T17:30:23.445Z,97616.16
2023-01-20T17:32:53.628Z,97614.38
2023-01-20T17:35:22.188Z,97616.25
2023-01-20T17:37:51.989Z,97619.22
2023-01-20T17:40:21.542Z,97622.78
2023-01-20T17:42:53.614Z,97619.75
2023-01-20T17:45:22.002Z,97625.13
2023-01-20T17:47:52.238Z,97623.56
2023-01-20T17:50:20.767Z,97625.34
2023-01-20T17:52:49.562Z,97629.97
2023-01-20T17:55:19.375Z,97630.09
2023-01-20T17:57:47.767Z,97635.44
2023-01-20T18:00:17.220Z,97628.75
2023-01-20T18:02:45.763Z,97634.09
2023-01-20T18:05:14.385Z,97629.78
2023-01-20T18:07:42.867Z,97640.28
2023-01-20T18:10:12.618Z,97640.28
2023-01-20T18:12:42.422Z,97644.59
2023-01-20T18:15:11.542Z,97641.88
2023-01-20T18:17:43.362Z,97643.63
2023-01-20T18:20:15.165Z,97644.50
2023-01-20T18:22:50.023Z,97647.09
2023-01-20T18:25:18.723Z,97649.63
2023-01-20T18:27:48.762Z,97654.03
2023-01-20T18:30:18.428Z,97643.63
2023-01-20T18:32:47.238Z,97654.03
2023-01-20T18:35:15.944Z,97649.72
2023-01-20T18:37:44.404Z,97652.34
2023-01-20T18:40:14.601Z,97652.47
2023-01-20T18:42:45.141Z,97658.63
2023-01-20T18:45:15.197Z,97655.19
2023-01-20T18:47:43.462Z,97659.59
2023-01-20T18:50:12.708Z,97657.81
2023-01-20T18:52:41.092Z,97655.31
2023-01-20T18:55:10.736Z,97664.09
2023-01-20T18:57:39.170Z,97658.03
2023-01-20T19:00:09.627Z,97659.91
2023-01-20T19:02:39.462Z,97657.28
2023-01-20T19:05:09.506Z,97663.38
2023-01-20T19:07:37.840Z,97658.13
2023-01-20T19:10:07.199Z,97663.38
2023-01-20T19:12:35.649Z,97657.19
2023-01-20T19:15:04.226Z,97661.56
2023-01-20T19:17:33.069Z,97665.03
2023-01-20T19:20:04.304Z,97666.81
2023-01-20T19:22:32.740Z,97666.81
2023-01-20T19:25:01.487Z,97668.53
2023-01-20T19:27:29.942Z,97671.97
2023-01-20T19:29:58.615Z,97664.19
2023-01-20T19:32:27.135Z,97662.53
2023-01-20T19:34:55.588Z,97668.63
2023-01-20T19:37:25.485Z,97672.19
2023-01-20T19:39:53.883Z,97665.25
2023-01-20T19:42:25.756Z,97669.75
2023-01-20T19:44:54.318Z,97673.34
2023-01-20T19:47:22.732Z,97674.31
2023-01-20T19:49:51.095Z,97678.81
2023-01-20T19:52:19.455Z,97677.25
2023-01-20T19:54:51.655Z,97677.34
2023-01-20T19:57:20.325Z,97674.94
2023-01-20T19:59:48.722Z,97682.16
2023-01-20T20:02:17.084Z,97683.81
2023-01-20T20:04:45.600Z,97678.69
2023-01-20T20:07:14.215Z,97686.66
2023-01-20T20:09:42.876Z,97683.22
2023-01-20T20:12:12.648Z,97686.06
2023-01-20T20:14:41.055Z,97686.06
2023-01-20T20:17:09.466Z,97694.03
2023-01-20T20:19:38.063Z,97682.69
2023-01-20T20:22:06.495Z,97700.09
2023-01-20T20:24:35.778Z,97702.59
2023-01-20T20:27:04.270Z,97694.13
2023-01-20T20:29:34.053Z,97693.28
2023-01-20T20:32:02.620Z,97705.44
2023-01-20T20:34:31.141Z,97699.47
2023-01-20T20:36:59.415Z,97703.00
2023-01-20T20:39:27.977Z,97697.66
2023-01-20T20:41:56.672Z,97702.00
2023-01-20T20:44:24.997Z,97699.25
2023-01-20T20:46:54.595Z,97696.53
2023-01-20T20:49:22.873Z,97700.09
2023-01-20T20:51:51.093Z,97699.97
2023-01-20T20:54:20.145Z,97700.81
2023-01-20T20:56:48.604Z,97704.81
2023-01-20T20:59:19.473Z,97704.81
2023-01-20T21:01:47.792Z,97705.03
2023-01-20T21:04:17.473Z,97713.00
2023-01-20T21:06:45.699Z,97711.44
2023-01-20T21:09:13.936Z,97712.44
2023-01-20T21:11:43.198Z,97717.19
2023-01-20T21:14:12.163Z,97712.88
2023-01-20T21:16:40.554Z,97716.44
2023-01-20T21:19:09.173Z,97719.16
2023-01-20T21:21:38.774Z,97725.97
2023-01-20T21:24:13.879Z,97725.25
2023-01-20T21:26:43.099Z,97726.06
2023-01-20T21:29:12.573Z,97727.03
2023-01-20T21:31:40.877Z,97730.50
2023-01-20T21:34:14.186Z,97741.09
2023-01-20T21:36:44.082Z,97746.31
2023-01-20T21:39:13.886Z,97740.34
2023-01-20T21:41:42.281Z,97740.22
2023-01-20T21:44:32.428Z,97742.00
2023-01-20T21:47:03.154Z,97744.63
2023-01-20T21:49:49.391Z,97742.97
2023-01-20T21:52:50.845Z,97746.44
2023-01-20T21:55:21.606Z,97745.78
2023-01-20T21:57:51.555Z,97745.88
2023-01-20T22:00:20.886Z,97752.69
2023-01-20T22:02:49.753Z,97752.69
2023-01-20T22:05:18.333Z,97749.25
2023-01-20T22:07:48.434Z,97756.06
2023-01-20T22:10:17.398Z,97750.81
2023-01-20T22:12:45.883Z,97757.72
2023-01-20T22:15:14.207Z,97762.06
2023-01-20T22:17:43.140Z,97759.44
2023-01-20T22:20:12.844Z,97767.28
2023-01-20T22:22:41.143Z,97767.28
2023-01-20T22:25:11.317Z,97770.13
2023-01-20T22:27:39.617Z,97771.03
2023-01-20T22:30:09.599Z,97772.94
2023-01-20T22:32:37.869Z,97779.94
2023-01-20T22:35:07.110Z,97779.94
2023-01-20T22:37:35.541Z,97782.78
2023-01-20T22:40:05.186Z,97782.78
2023-01-20T22:42:35.633Z,97776.78
2023-01-20T22:45:04.165Z,97786.34
2023-01-20T22:47:32.510Z,97775.75
2023-01-20T22:50:00.818Z,97782.66
2023-01-20T22:52:29.365Z,97786.97
2023-01-20T22:54:57.702Z,97774.72
2023-01-20T22:57:25.990Z,97786.84
2023-01-20T22:59:55.629Z,97790.44
2023-01-20T23:02:23.984Z,97786.16
2023-01-20T23:04:53.196Z,97781.91
2023-01-20T23:07:21.596Z,97789.06
2023-01-20T23:09:50.049Z,97789.06
2023-01-20T23:12:18.420Z,97778.88
2023-01-20T23:15:02.563Z,97783.72
2023-01-20T23:17:33.782Z,97782.13
2023-01-20T23:20:02.151Z,97789.97
2023-01-20T23:22:30.754Z,97783.91
2023-01-20T23:24:59.083Z,97789.97
2023-01-20T23:27:27.369Z,97789.97
2023-01-20T23:29:55.786Z,97788.31
2023-01-20T23:32:24.130Z,97781.41
2023-01-20T23:34:53.842Z,97786.84
2023-01-20T23:37:22.145Z,97785.13
2023-01-20T23:39:52.608Z,97782.63
2023-01-20T23:42:21.028Z,97789.84
2023-01-20T23:44:49.319Z,97787.34
2023-01-20T23:47:17.681Z,97792.69
2023-01-20T23:49:46.030Z,97790.34
2023-01-20T23:52:15.731Z,97790.25
2023-01-20T23:54:44.070Z,97798.22
2023-01-20T23:57:12.419Z,97791.38
2023-01-20T23:59:40.857Z,97800.19
